sensor_id;sensor_type;location;lat;lon;timestamp;P1;P2;P0
72509;PMS5003;60532;56.114;40.350;2023-09-07T00:01:32;0.00;0.00;0.00
72509;PMS5003;60532;56.114;40.350;2023-09-07T00:03:32;0.00;0.00;0.00
72509;PMS5003;60532;56.114;40.350;2023-09-07T00:05:33;0.00;0.00;0.00
72509;PMS5003;60532;56.114;40.350;2023-09-07T00:07:33;0.75;0.75;0.00
72509;PMS5003;60532;56.114;40.350;2023-09-07T00:09:34;1.25;0.25;0.00
72509;PMS5003;60532;56.114;40.350;2023-09-07T00:11:34;1.00;0.00;0.00
72509;PMS5003;60532;56.114;40.350;2023-09-07T00:13:34;1.00;1.00;0.00
72509;PMS5003;60532;56.114;40.350;2023-09-07T00:15:36;2.00;0.00;0.00
72509;PMS5003;60532;56.114;40.350;2023-09-07T00:17:37;0.20;0.20;0.00
72509;PMS5003;60532;56.114;40.350;2023-09-07T00:19:37;0.00;0.00;0.00
72509;PMS5003;60532;56.114;40.350;2023-09-07T00:21:38;2.00;0.00;0.00
72509;PMS5003;60532;56.114;40.350;2023-09-07T00:23:39;2.00;2.00;0.00
72509;PMS5003;60532;56.114;40.350;2023-09-07T00:25:40;0.40;0.40;0.00
72509;PMS5003;60532;56.114;40.350;2023-09-07T00:27:40;2.00;0.00;0.00
72509;PMS5003;60532;56.114;40.350;2023-09-07T00:29:41;0.00;0.00;0.00
72509;PMS5003;60532;56.114;40.350;2023-09-07T00:31:41;0.00;0.00;0.00
72509;PMS5003;60532;56.114;40.350;2023-09-07T00:33:42;0.00;0.00;0.00
72509;PMS5003;60532;56.114;40.350;2023-09-07T00:35:42;1.25;1.25;0.00
72509;PMS5003;60532;56.114;40.350;2023-09-07T00:37:42;1.00;1.00;0.00
72509;PMS5003;60532;56.114;40.350;2023-09-07T00:39:43;0.00;0.00;0.00
72509;PMS5003;60532;56.114;40.350;2023-09-07T00:41:43;1.00;1.00;0.00
72509;PMS5003;60532;56.114;40.350;2023-09-07T00:43:44;0.25;0.25;0.00
72509;PMS5003;60532;56.114;40.350;2023-09-07T00:45:44;0.00;0.00;0.00
72509;PMS5003;60532;56.114;40.350;2023-09-07T00:47:45;0.00;0.00;0.00
72509;PMS5003;60532;56.114;40.350;2023-09-07T00:49:45;0.00;0.00;0.00
72509;PMS5003;60532;56.114;40.350;2023-09-07T00:51:46;0.50;0.50;0.00
72509;PMS5003;60532;56.114;40.350;2023-09-07T00:53:46;1.00;1.00;0.00
72509;PMS5003;60532;56.114;40.350;2023-09-07T00:55:47;0.00;0.00;0.00
72509;PMS5003;60532;56.114;40.350;2023-09-07T00:57:47;2.50;1.00;0.00
72509;PMS5003;60532;56.114;40.350;2023-09-07T00:59:48;0.00;0.00;0.00
72509;PMS5003;60532;56.114;40.350;2023-09-07T01:01:48;1.00;1.00;0.00
72509;PMS5003;60532;56.114;40.350;2023-09-07T01:03:50;2.00;1.00;0.00
72509;PMS5003;60532;56.114;40.350;2023-09-07T01:05:58;2.00;0.20;0.00
72509;PMS5003;60532;56.114;40.350;2023-09-07T01:08:04;0.00;0.00;0.00
72509;PMS5003;60532;56.114;40.350;2023-09-07T01:10:08;0.40;0.40;0.00
72509;PMS5003;60532;56.114;40.350;2023-09-07T01:12:13;3.25;0.00;0.00
72509;PMS5003;60532;56.114;40.350;2023-09-07T01:14:14;1.00;1.00;0.00
72509;PMS5003;60532;56.114;40.350;2023-09-07T01:16:14;0.00;0.00;0.00
72509;PMS5003;60532;56.114;40.350;2023-09-07T01:18:15;0.75;0.75;0.00
72509;PMS5003;60532;56.114;40.350;2023-09-07T01:20:16;1.00;0.20;0.00
72509;PMS5003;60532;56.114;40.350;2023-09-07T01:22:17;0.00;0.00;0.00
72509;PMS5003;60532;56.114;40.350;2023-09-07T01:24:37;0.00;0.00;0.00
72509;PMS5003;60532;56.114;40.350;2023-09-07T01:26:57;0.80;0.80;0.00
72509;PMS5003;60532;56.114;40.350;2023-09-07T01:29:17;0.00;0.00;0.00
72509;PMS5003;60532;56.114;40.350;2023-09-07T01:31:36;1.00;1.00;0.00
72509;PMS5003;60532;56.114;40.350;2023-09-07T01:33:59;0.00;0.00;0.00
72509;PMS5003;60532;56.114;40.350;2023-09-07T01:36:18;0.00;0.00;0.00
72509;PMS5003;60532;56.114;40.350;2023-09-07T01:38:37;1.00;1.00;0.00
72509;PMS5003;60532;56.114;40.350;2023-09-07T01:40:55;1.20;0.20;0.00
72509;PMS5003;60532;56.114;40.350;2023-09-07T01:43:15;1.00;1.00;0.00
72509;PMS5003;60532;56.114;40.350;2023-09-07T01:45:34;2.00;0.20;0.00
72509;PMS5003;60532;56.114;40.350;2023-09-07T01:47:52;0.60;0.60;0.00
72509;PMS5003;60532;56.114;40.350;2023-09-07T01:50:12;0.60;0.20;0.00
72509;PMS5003;60532;56.114;40.350;2023-09-07T01:52:32;1.00;1.00;0.00
72509;PMS5003;60532;56.114;40.350;2023-09-07T01:54:51;1.00;1.00;0.00
72509;PMS5003;60532;56.114;40.350;2023-09-07T01:57:10;0.80;0.80;0.00
72509;PMS5003;60532;56.114;40.350;2023-09-07T01:59:29;2.20;1.00;0.00
72509;PMS5003;60532;56.114;40.350;2023-09-07T02:01:49;2.60;0.80;0.00
72509;PMS5003;60532;56.114;40.350;2023-09-07T02:04:08;1.80;0.00;0.00
72509;PMS5003;60532;56.114;40.350;2023-09-07T02:06:27;1.00;0.00;0.00
72509;PMS5003;60532;56.114;40.350;2023-09-07T02:08:46;0.00;0.00;0.00
72509;PMS5003;60532;56.114;40.350;2023-09-07T02:11:05;2.20;1.00;0.00
72509;PMS5003;60532;56.114;40.350;2023-09-07T02:13:24;0.80;0.80;0.00
72509;PMS5003;60532;56.114;40.350;2023-09-07T02:15:43;0.20;0.20;0.00
72509;PMS5003;60532;56.114;40.350;2023-09-07T02:18:03;1.00;1.00;0.00
72509;PMS5003;60532;56.114;40.350;2023-09-07T02:20:22;0.00;0.00;0.00
72509;PMS5003;60532;56.114;40.350;2023-09-07T02:22:41;1.20;1.20;0.00
72509;PMS5003;60532;56.114;40.350;2023-09-07T02:25:00;1.20;0.40;0.00
72509;PMS5003;60532;56.114;40.350;2023-09-07T02:27:03;1.60;1.00;0.00
72509;PMS5003;60532;56.114;40.350;2023-09-07T02:29:04;0.75;0.75;0.00
72509;PMS5003;60532;56.114;40.350;2023-09-07T02:31:06;0.00;0.00;0.00
72509;PMS5003;60532;56.114;40.350;2023-09-07T02:33:07;0.00;0.00;0.00
72509;PMS5003;60532;56.114;40.350;2023-09-07T02:35:07;2.00;0.00;0.00
72509;PMS5003;60532;56.114;40.350;2023-09-07T02:37:08;1.75;0.75;0.00
72509;PMS5003;60532;56.114;40.350;2023-09-07T02:39:08;1.00;1.00;0.00
72509;PMS5003;60532;56.114;40.350;2023-09-07T02:41:09;3.00;1.80;1.00
72509;PMS5003;60532;56.114;40.350;2023-09-07T02:43:10;3.00;1.00;1.00
72509;PMS5003;60532;56.114;40.350;2023-09-07T02:45:11;1.00;1.00;0.00
72509;PMS5003;60532;56.114;40.350;2023-09-07T02:47:12;1.00;1.00;0.00
72509;PMS5003;60532;56.114;40.350;2023-09-07T02:49:12;0.25;0.25;0.00
72509;PMS5003;60532;56.114;40.350;2023-09-07T02:51:13;0.00;0.00;0.00
72509;PMS5003;60532;56.114;40.350;2023-09-07T02:53:14;2.00;1.00;0.50
72509;PMS5003;60532;56.114;40.350;2023-09-07T02:55:14;2.00;2.00;0.75
72509;PMS5003;60532;56.114;40.350;2023-09-07T02:57:15;2.00;2.00;0.40
72509;PMS5003;60532;56.114;40.350;2023-09-07T02:59:16;1.50;1.00;0.75
72509;PMS5003;60532;56.114;40.350;2023-09-07T03:01:16;0.75;0.50;0.00
72509;PMS5003;60532;56.114;40.350;2023-09-07T03:03:20;1.00;1.00;0.20
72509;PMS5003;60532;56.114;40.350;2023-09-07T03:05:21;1.00;1.00;0.00
72509;PMS5003;60532;56.114;40.350;2023-09-07T03:07:21;2.00;2.00;1.00
72509;PMS5003;60532;56.114;40.350;2023-09-07T03:09:22;1.50;1.50;0.25
72509;PMS5003;60532;56.114;40.350;2023-09-07T03:11:22;1.00;1.00;0.00
72509;PMS5003;60532;56.114;40.350;2023-09-07T03:13:23;1.00;1.00;0.00
72509;PMS5003;60532;56.114;40.350;2023-09-07T03:15:23;0.75;0.75;0.00
72509;PMS5003;60532;56.114;40.350;2023-09-07T03:17:23;1.25;1.25;0.25
72509;PMS5003;60532;56.114;40.350;2023-09-07T03:19:24;3.00;1.50;1.00
72509;PMS5003;60532;56.114;40.350;2023-09-07T03:21:24;2.00;2.00;1.00
72509;PMS5003;60532;56.114;40.350;2023-09-07T03:23:29;1.00;1.00;0.60
72509;PMS5003;60532;56.114;40.350;2023-09-07T03:25:30;2.00;2.00;1.00
72509;PMS5003;60532;56.114;40.350;2023-09-07T03:27:31;2.00;2.00;1.00
72509;PMS5003;60532;56.114;40.350;2023-09-07T03:29:32;3.00;1.00;1.00
72509;PMS5003;60532;56.114;40.350;2023-09-07T03:31:33;2.40;2.00;1.00
72509;PMS5003;60532;56.114;40.350;2023-09-07T03:33:34;3.00;1.50;1.00
72509;PMS5003;60532;56.114;40.350;2023-09-07T03:35:34;2.00;2.00;1.00
72509;PMS5003;60532;56.114;40.350;2023-09-07T03:37:35;2.00;2.00;1.00
72509;PMS5003;60532;56.114;40.350;2023-09-07T03:39:37;2.00;2.00;1.00
72509;PMS5003;60532;56.114;40.350;2023-09-07T03:41:37;2.00;2.00;1.00
72509;PMS5003;60532;56.114;40.350;2023-09-07T03:43:38;1.00;1.00;0.00
72509;PMS5003;60532;56.114;40.350;2023-09-07T03:45:38;2.00;2.00;1.00
72509;PMS5003;60532;56.114;40.350;2023-09-07T03:47:38;1.75;0.75;0.75
72509;PMS5003;60532;56.114;40.350;2023-09-07T03:49:39;1.50;1.50;1.00
72509;PMS5003;60532;56.114;40.350;2023-09-07T03:51:39;2.00;2.00;1.00
72509;PMS5003;60532;56.114;40.350;2023-09-07T03:53:40;3.00;2.00;1.25
72509;PMS5003;60532;56.114;40.350;2023-09-07T03:55:41;2.25;2.25;1.00
72509;PMS5003;60532;56.114;40.350;2023-09-07T03:57:42;2.00;2.00;1.00
72509;PMS5003;60532;56.114;40.350;2023-09-07T03:59:42;3.00;2.00;0.00
72509;PMS5003;60532;56.114;40.350;2023-09-07T04:01:42;2.00;2.00;1.00
72509;PMS5003;60532;56.114;40.350;2023-09-07T04:03:43;3.00;3.00;1.00
72509;PMS5003;60532;56.114;40.350;2023-09-07T04:05:43;3.50;3.00;1.00
72509;PMS5003;60532;56.114;40.350;2023-09-07T04:07:44;3.00;3.00;2.00
72509;PMS5003;60532;56.114;40.350;2023-09-07T04:09:44;2.00;2.00;1.25
72509;PMS5003;60532;56.114;40.350;2023-09-07T04:11:45;2.40;1.80;1.00
72509;PMS5003;60532;56.114;40.350;2023-09-07T04:13:46;3.00;3.00;1.50
72509;PMS5003;60532;56.114;40.350;2023-09-07T04:15:46;1.50;1.50;1.00
72509;PMS5003;60532;56.114;40.350;2023-09-07T04:17:47;4.00;3.00;1.00
72509;PMS5003;60532;56.114;40.350;2023-09-07T04:19:47;2.00;2.00;1.75
72509;PMS5003;60532;56.114;40.350;2023-09-07T04:21:47;2.50;2.50;1.00
72509;PMS5003;60532;56.114;40.350;2023-09-07T04:23:48;2.00;2.00;1.00
72509;PMS5003;60532;56.114;40.350;2023-09-07T04:25:48;4.00;4.00;2.00
72509;PMS5003;60532;56.114;40.350;2023-09-07T04:27:49;2.75;2.75;1.00
72509;PMS5003;60532;56.114;40.350;2023-09-07T04:29:49;6.75;3.00;1.50
72509;PMS5003;60532;56.114;40.350;2023-09-07T04:31:50;4.25;2.75;2.00
72509;PMS5003;60532;56.114;40.350;2023-09-07T04:33:50;2.25;2.25;1.75
72509;PMS5003;60532;56.114;40.350;2023-09-07T04:35:50;5.00;3.00;1.00
72509;PMS5003;60532;56.114;40.350;2023-09-07T04:37:51;8.00;3.50;2.00
72509;PMS5003;60532;56.114;40.350;2023-09-07T04:39:52;3.00;3.00;2.00
72509;PMS5003;60532;56.114;40.350;2023-09-07T04:41:53;3.40;3.40;2.00
72509;PMS5003;60532;56.114;40.350;2023-09-07T04:43:53;3.00;2.00;1.25
72509;PMS5003;60532;56.114;40.350;2023-09-07T04:45:54;2.00;2.00;1.00
72509;PMS5003;60532;56.114;40.350;2023-09-07T04:47:54;2.00;2.00;2.00
72509;PMS5003;60532;56.114;40.350;2023-09-07T04:49:55;2.75;2.75;1.00
72509;PMS5003;60532;56.114;40.350;2023-09-07T04:51:57;4.50;2.75;2.00
72509;PMS5003;60532;56.114;40.350;2023-09-07T04:53:57;2.40;2.40;1.80
72509;PMS5003;60532;56.114;40.350;2023-09-07T04:55:58;2.00;2.00;1.25
72509;PMS5003;60532;56.114;40.350;2023-09-07T04:57:58;2.00;2.00;1.80
72509;PMS5003;60532;56.114;40.350;2023-09-07T04:59:59;3.00;3.00;1.25
72509;PMS5003;60532;56.114;40.350;2023-09-07T05:02:00;4.00;4.00;2.00
72509;PMS5003;60532;56.114;40.350;2023-09-07T05:04:01;6.00;4.40;1.00
72509;PMS5003;60532;56.114;40.350;2023-09-07T05:06:04;3.20;2.00;1.00
72509;PMS5003;60532;56.114;40.350;2023-09-07T05:08:05;4.40;3.00;2.00
72509;PMS5003;60532;56.114;40.350;2023-09-07T05:10:06;3.00;3.00;2.00
72509;PMS5003;60532;56.114;40.350;2023-09-07T05:12:08;4.60;4.60;2.80
72509;PMS5003;60532;56.114;40.350;2023-09-07T05:14:09;3.50;3.00;1.25
72509;PMS5003;60532;56.114;40.350;2023-09-07T05:16:09;3.50;3.00;2.00
72509;PMS5003;60532;56.114;40.350;2023-09-07T05:18:10;3.00;3.00;1.00
72509;PMS5003;60532;56.114;40.350;2023-09-07T05:20:10;4.75;4.00;2.00
72509;PMS5003;60532;56.114;40.350;2023-09-07T05:22:11;4.00;4.00;2.50
72509;PMS5003;60532;56.114;40.350;2023-09-07T05:24:12;2.00;2.00;1.00
72509;PMS5003;60532;56.114;40.350;2023-09-07T05:26:13;2.60;2.60;1.60
72509;PMS5003;60532;56.114;40.350;2023-09-07T05:28:14;5.00;4.75;2.00
72509;PMS5003;60532;56.114;40.350;2023-09-07T05:30:14;4.40;3.00;2.00
72509;PMS5003;60532;56.114;40.350;2023-09-07T05:32:15;3.25;3.25;2.00
72509;PMS5003;60532;56.114;40.350;2023-09-07T05:34:16;2.00;2.00;2.00
72509;PMS5003;60532;56.114;40.350;2023-09-07T05:36:16;2.00;2.00;1.00
72509;PMS5003;60532;56.114;40.350;2023-09-07T05:38:17;3.25;3.00;2.00
72509;PMS5003;60532;56.114;40.350;2023-09-07T05:40:17;5.50;4.00;3.00
72509;PMS5003;60532;56.114;40.350;2023-09-07T05:42:17;4.00;3.00;2.00
72509;PMS5003;60532;56.114;40.350;2023-09-07T05:44:18;3.75;3.25;1.00
72509;PMS5003;60532;56.114;40.350;2023-09-07T05:46:18;6.50;3.25;2.00
72509;PMS5003;60532;56.114;40.350;2023-09-07T05:48:19;4.00;4.00;2.00
72509;PMS5003;60532;56.114;40.350;2023-09-07T05:50:19;3.25;3.25;2.00
72509;PMS5003;60532;56.114;40.350;2023-09-07T05:52:19;4.00;3.00;2.00
72509;PMS5003;60532;56.114;40.350;2023-09-07T05:54:20;3.75;3.00;1.50
72509;PMS5003;60532;56.114;40.350;2023-09-07T05:56:20;2.50;2.00;1.00
72509;PMS5003;60532;56.114;40.350;2023-09-07T05:58:21;2.50;2.50;1.75
72509;PMS5003;60532;56.114;40.350;2023-09-07T06:00:21;6.00;2.50;1.50
72509;PMS5003;60532;56.114;40.350;2023-09-07T06:02:22;3.00;3.00;1.50
72509;PMS5003;60532;56.114;40.350;2023-09-07T06:04:22;4.00;3.00;2.00
72509;PMS5003;60532;56.114;40.350;2023-09-07T06:06:23;3.50;3.50;1.75
72509;PMS5003;60532;56.114;40.350;2023-09-07T06:08:23;3.75;2.75;0.75
72509;PMS5003;60532;56.114;40.350;2023-09-07T06:10:24;3.67;2.67;1.67
72509;PMS5003;60532;56.114;40.350;2023-09-07T06:12:24;2.00;2.00;2.00
72509;PMS5003;60532;56.114;40.350;2023-09-07T06:14:25;3.00;3.00;1.67
72509;PMS5003;60532;56.114;40.350;2023-09-07T06:16:25;3.00;3.00;2.00
72509;PMS5003;60532;56.114;40.350;2023-09-07T06:18:26;2.00;2.00;1.00
72509;PMS5003;60532;56.114;40.350;2023-09-07T06:20:26;2.67;2.00;1.00
72509;PMS5003;60532;56.114;40.350;2023-09-07T06:22:26;3.67;3.67;1.67
72509;PMS5003;60532;56.114;40.350;2023-09-07T06:24:27;3.00;3.00;2.00
72509;PMS5003;60532;56.114;40.350;2023-09-07T06:26:27;2.00;1.00;1.00
72509;PMS5003;60532;56.114;40.350;2023-09-07T06:28:28;3.33;3.33;2.00
72509;PMS5003;60532;56.114;40.350;2023-09-07T06:30:28;2.00;2.00;1.33
72509;PMS5003;60532;56.114;40.350;2023-09-07T06:32:29;3.00;3.00;1.33
72509;PMS5003;60532;56.114;40.350;2023-09-07T06:34:29;2.33;1.00;0.00
72509;PMS5003;60532;56.114;40.350;2023-09-07T06:36:30;1.67;1.67;1.00
72509;PMS5003;60532;56.114;40.350;2023-09-07T06:38:31;3.75;3.75;2.00
72509;PMS5003;60532;56.114;40.350;2023-09-07T06:40:31;4.33;3.00;1.67
72509;PMS5003;60532;56.114;40.350;2023-09-07T06:42:32;1.00;1.00;0.00
72509;PMS5003;60532;56.114;40.350;2023-09-07T06:44:33;2.33;2.33;2.00
72509;PMS5003;60532;56.114;40.350;2023-09-07T06:46:34;2.25;2.25;1.00
72509;PMS5003;60532;56.114;40.350;2023-09-07T06:48:34;2.33;1.33;1.00
72509;PMS5003;60532;56.114;40.350;2023-09-07T06:50:35;3.50;1.75;1.00
72509;PMS5003;60532;56.114;40.350;2023-09-07T06:52:35;1.33;1.33;0.67
72509;PMS5003;60532;56.114;40.350;2023-09-07T06:54:36;3.67;2.67;2.00
72509;PMS5003;60532;56.114;40.350;2023-09-07T06:56:36;3.00;3.00;1.33
72509;PMS5003;60532;56.114;40.350;2023-09-07T06:58:37;1.67;1.67;1.00
72509;PMS5003;60532;56.114;40.350;2023-09-07T07:00:37;1.33;1.33;1.00
72509;PMS5003;60532;56.114;40.350;2023-09-07T07:02:38;4.00;2.67;1.00
72509;PMS5003;60532;56.114;40.350;2023-09-07T07:04:38;2.00;2.00;1.25
72509;PMS5003;60532;56.114;40.350;2023-09-07T07:06:39;5.50;4.00;2.00
72509;PMS5003;60532;56.114;40.350;2023-09-07T07:08:40;2.00;2.00;1.67
72509;PMS5003;60532;56.114;40.350;2023-09-07T07:10:40;3.00;2.00;1.00
72509;PMS5003;60532;56.114;40.350;2023-09-07T07:12:42;4.75;3.75;1.75
72509;PMS5003;60532;56.114;40.350;2023-09-07T07:14:42;2.33;2.33;1.00
72509;PMS5003;60532;56.114;40.350;2023-09-07T07:16:43;1.33;1.33;0.33
72509;PMS5003;60532;56.114;40.350;2023-09-07T07:18:43;2.67;2.00;1.33
72509;PMS5003;60532;56.114;40.350;2023-09-07T07:20:44;7.00;4.67;2.00
72509;PMS5003;60532;56.114;40.350;2023-09-07T07:22:44;4.00;4.00;2.33
72509;PMS5003;60532;56.114;40.350;2023-09-07T07:24:45;2.00;2.00;1.00
72509;PMS5003;60532;56.114;40.350;2023-09-07T07:26:46;2.75;2.25;0.75
72509;PMS5003;60532;56.114;40.350;2023-09-07T07:28:46;2.67;2.67;1.33
72509;PMS5003;60532;56.114;40.350;2023-09-07T07:30:47;3.00;3.00;1.00
72509;PMS5003;60532;56.114;40.350;2023-09-07T07:32:48;2.50;2.50;1.25
72509;PMS5003;60532;56.114;40.350;2023-09-07T07:34:51;2.60;1.80;1.00
72509;PMS5003;60532;56.114;40.350;2023-09-07T07:36:51;4.00;2.75;2.00
72509;PMS5003;60532;56.114;40.350;2023-09-07T07:38:51;2.00;2.00;1.25
72509;PMS5003;60532;56.114;40.350;2023-09-07T07:40:52;3.50;3.00;1.50
72509;PMS5003;60532;56.114;40.350;2023-09-07T07:42:53;2.20;2.20;1.80
72509;PMS5003;60532;56.114;40.350;2023-09-07T07:44:54;3.00;2.00;0.75
72509;PMS5003;60532;56.114;40.350;2023-09-07T07:46:54;3.00;3.00;2.00
72509;PMS5003;60532;56.114;40.350;2023-09-07T07:48:54;3.00;3.00;1.00
72509;PMS5003;60532;56.114;40.350;2023-09-07T07:50:55;1.00;0.00;0.00
72509;PMS5003;60532;56.114;40.350;2023-09-07T07:52:55;2.75;2.50;2.00
72509;PMS5003;60532;56.114;40.350;2023-09-07T07:54:56;3.00;3.00;2.00
72509;PMS5003;60532;56.114;40.350;2023-09-07T07:56:56;2.50;2.50;1.00
72509;PMS5003;60532;56.114;40.350;2023-09-07T07:58:57;2.00;2.00;1.75
72509;PMS5003;60532;56.114;40.350;2023-09-07T08:00:57;2.25;2.00;1.00
72509;PMS5003;60532;56.114;40.350;2023-09-07T08:02:58;4.60;4.00;2.00
72509;PMS5003;60532;56.114;40.350;2023-09-07T08:04:59;3.25;3.25;1.00
72509;PMS5003;60532;56.114;40.350;2023-09-07T08:06:59;4.00;2.25;1.00
72509;PMS5003;60532;56.114;40.350;2023-09-07T08:09:04;2.80;2.80;1.00
72509;PMS5003;60532;56.114;40.350;2023-09-07T08:11:04;3.25;3.00;2.00
72509;PMS5003;60532;56.114;40.350;2023-09-07T08:13:06;4.00;4.00;2.00
72509;PMS5003;60532;56.114;40.350;2023-09-07T08:15:06;4.00;3.00;2.00
72509;PMS5003;60532;56.114;40.350;2023-09-07T08:17:07;3.00;3.00;2.00
72509;PMS5003;60532;56.114;40.350;2023-09-07T08:19:08;2.20;2.00;1.00
72509;PMS5003;60532;56.114;40.350;2023-09-07T08:21:08;1.75;1.75;1.00
72509;PMS5003;60532;56.114;40.350;2023-09-07T08:23:09;4.00;2.75;2.00
72509;PMS5003;60532;56.114;40.350;2023-09-07T08:25:11;3.00;3.00;2.00
72509;PMS5003;60532;56.114;40.350;2023-09-07T08:27:13;4.00;2.40;1.00
72509;PMS5003;60532;56.114;40.350;2023-09-07T08:29:18;2.80;2.80;2.00
72509;PMS5003;60532;56.114;40.350;2023-09-07T08:31:20;3.00;3.00;1.00
72509;PMS5003;60532;56.114;40.350;2023-09-07T08:33:22;2.00;2.00;1.80
72509;PMS5003;60532;56.114;40.350;2023-09-07T08:35:29;2.00;2.00;1.00
72509;PMS5003;60532;56.114;40.350;2023-09-07T08:37:30;3.00;2.00;1.00
72509;PMS5003;60532;56.114;40.350;2023-09-07T08:39:31;3.80;3.80;2.80
72509;PMS5003;60532;56.114;40.350;2023-09-07T08:41:36;2.00;2.00;1.00
72509;PMS5003;60532;56.114;40.350;2023-09-07T08:43:45;3.00;2.00;1.00
72509;PMS5003;60532;56.114;40.350;2023-09-07T08:45:48;6.00;2.80;1.00
72509;PMS5003;60532;56.114;40.350;2023-09-07T08:47:50;2.00;2.00;1.00
72509;PMS5003;60532;56.114;40.350;2023-09-07T08:49:52;3.80;3.20;2.00
72509;PMS5003;60532;56.114;40.350;2023-09-07T08:51:53;3.00;3.00;2.20
72509;PMS5003;60532;56.114;40.350;2023-09-07T08:53:53;5.75;3.00;1.25
72509;PMS5003;60532;56.114;40.350;2023-09-07T08:56:16;3.20;1.40;1.00
72509;PMS5003;60532;56.114;40.350;2023-09-07T08:58:38;2.20;2.20;1.80
72509;PMS5003;60532;56.114;40.350;2023-09-07T09:00:59;2.00;2.00;1.80
72509;PMS5003;60532;56.114;40.350;2023-09-07T09:03:18;3.00;2.00;1.00
72509;PMS5003;60532;56.114;40.350;2023-09-07T09:05:38;1.60;1.60;0.20
72509;PMS5003;60532;56.114;40.350;2023-09-07T09:08:03;4.00;4.00;1.60
72509;PMS5003;60532;56.114;40.350;2023-09-07T09:10:25;2.00;2.00;0.60
72509;PMS5003;60532;56.114;40.350;2023-09-07T09:12:45;2.80;2.80;2.00
72509;PMS5003;60532;56.114;40.350;2023-09-07T09:15:05;1.00;1.00;0.00
72509;PMS5003;60532;56.114;40.350;2023-09-07T09:17:25;3.40;3.00;2.00
72509;PMS5003;60532;56.114;40.350;2023-09-07T09:19:44;3.40;3.40;2.00
72509;PMS5003;60532;56.114;40.350;2023-09-07T09:22:03;5.20;2.80;1.40
72509;PMS5003;60532;56.114;40.350;2023-09-07T09:24:22;3.80;3.80;1.60
72509;PMS5003;60532;56.114;40.350;2023-09-07T09:26:41;1.60;1.60;1.20
72509;PMS5003;60532;56.114;40.350;2023-09-07T09:29:00;2.00;2.00;1.60
72509;PMS5003;60532;56.114;40.350;2023-09-07T09:31:19;2.40;2.40;1.00
72509;PMS5003;60532;56.114;40.350;2023-09-07T09:33:39;4.20;3.20;2.00
72509;PMS5003;60532;56.114;40.350;2023-09-07T09:35:59;3.00;3.00;2.00
72509;PMS5003;60532;56.114;40.350;2023-09-07T09:38:18;2.00;2.00;1.00
72509;PMS5003;60532;56.114;40.350;2023-09-07T09:40:37;3.60;3.60;3.00
72509;PMS5003;60532;56.114;40.350;2023-09-07T09:42:57;4.00;4.00;2.00
72509;PMS5003;60532;56.114;40.350;2023-09-07T09:45:16;4.80;4.80;3.00
72509;PMS5003;60532;56.114;40.350;2023-09-07T09:47:39;5.00;5.00;3.00
72509;PMS5003;60532;56.114;40.350;2023-09-07T09:49:59;4.60;3.80;3.00
72509;PMS5003;60532;56.114;40.350;2023-09-07T09:52:20;4.00;4.00;3.00
72509;PMS5003;60532;56.114;40.350;2023-09-07T09:54:40;3.40;3.40;2.20
72509;PMS5003;60532;56.114;40.350;2023-09-07T09:57:01;3.40;3.40;2.80
72509;PMS5003;60532;56.114;40.350;2023-09-07T09:59:01;5.75;4.00;3.00
72509;PMS5003;60532;56.114;40.350;2023-09-07T10:01:02;3.00;3.00;2.00
72509;PMS5003;60532;56.114;40.350;2023-09-07T10:03:25;5.80;4.40;2.40
72509;PMS5003;60532;56.114;40.350;2023-09-07T10:05:27;5.00;5.00;3.00
72509;PMS5003;60532;56.114;40.350;2023-09-07T10:07:41;5.00;4.00;2.00
72509;PMS5003;60532;56.114;40.350;2023-09-07T10:09:42;4.60;4.00;2.40
72509;PMS5003;60532;56.114;40.350;2023-09-07T10:11:43;4.60;4.60;2.60
72509;PMS5003;60532;56.114;40.350;2023-09-07T10:13:43;6.00;4.50;3.00
72509;PMS5003;60532;56.114;40.350;2023-09-07T10:15:44;7.25;5.00;2.00
72509;PMS5003;60532;56.114;40.350;2023-09-07T10:17:44;5.00;5.00;3.00
72509;PMS5003;60532;56.114;40.350;2023-09-07T10:19:46;7.00;6.00;3.60
72509;PMS5003;60532;56.114;40.350;2023-09-07T10:21:54;4.20;4.20;3.00
72509;PMS5003;60532;56.114;40.350;2023-09-07T10:23:55;6.00;6.00;4.00
72509;PMS5003;60532;56.114;40.350;2023-09-07T10:25:56;5.00;4.25;3.00
72509;PMS5003;60532;56.114;40.350;2023-09-07T10:27:56;4.00;3.80;2.80
72509;PMS5003;60532;56.114;40.350;2023-09-07T10:29:57;4.00;4.00;3.00
72509;PMS5003;60532;56.114;40.350;2023-09-07T10:32:04;4.80;4.80;3.40
72509;PMS5003;60532;56.114;40.350;2023-09-07T10:34:08;7.20;7.20;4.00
72509;PMS5003;60532;56.114;40.350;2023-09-07T10:38:40;6.00;4.00;2.60
72509;PMS5003;60532;56.114;40.350;2023-09-07T10:40:44;4.75;4.75;3.00
72509;PMS5003;60532;56.114;40.350;2023-09-07T10:42:45;3.80;3.80;2.00
72509;PMS5003;60532;56.114;40.350;2023-09-07T10:44:45;4.75;4.25;2.50
72509;PMS5003;60532;56.114;40.350;2023-09-07T10:46:46;5.00;4.00;2.75
72509;PMS5003;60532;56.114;40.350;2023-09-07T10:48:52;4.50;3.00;2.00
72509;PMS5003;60532;56.114;40.350;2023-09-07T10:50:53;5.00;4.00;2.00
72509;PMS5003;60532;56.114;40.350;2023-09-07T10:52:53;3.00;2.00;1.00
72509;PMS5003;60532;56.114;40.350;2023-09-07T10:54:57;1.00;0.00;0.00
72509;PMS5003;60532;56.114;40.350;2023-09-07T10:56:57;3.00;3.00;1.00
72509;PMS5003;60532;56.114;40.350;2023-09-07T10:59:07;3.60;3.00;1.00
72509;PMS5003;60532;56.114;40.350;2023-09-07T11:01:08;1.00;1.00;0.50
72509;PMS5003;60532;56.114;40.350;2023-09-07T11:03:09;1.00;1.00;1.00
72509;PMS5003;60532;56.114;40.350;2023-09-07T11:05:10;3.40;2.20;1.00
72509;PMS5003;60532;56.114;40.350;2023-09-07T11:07:11;2.50;2.50;2.00
72509;PMS5003;60532;56.114;40.350;2023-09-07T11:09:12;2.20;2.20;1.00
72509;PMS5003;60532;56.114;40.350;2023-09-07T11:11:12;2.50;2.50;1.25
72509;PMS5003;60532;56.114;40.350;2023-09-07T11:13:13;2.00;2.00;1.00
72509;PMS5003;60532;56.114;40.350;2023-09-07T11:15:16;2.00;2.00;1.00
72509;PMS5003;60532;56.114;40.350;2023-09-07T11:17:19;2.80;2.80;1.40
72509;PMS5003;60532;56.114;40.350;2023-09-07T11:19:21;3.75;3.50;2.00
72509;PMS5003;60532;56.114;40.350;2023-09-07T11:21:22;2.20;2.00;1.20
72509;PMS5003;60532;56.114;40.350;2023-09-07T11:23:23;3.40;3.40;2.00
72509;PMS5003;60532;56.114;40.350;2023-09-07T11:25:24;2.00;2.00;1.40
72509;PMS5003;60532;56.114;40.350;2023-09-07T11:27:24;4.00;3.00;1.00
72509;PMS5003;60532;56.114;40.350;2023-09-07T11:29:26;3.00;3.00;2.40
72509;PMS5003;60532;56.114;40.350;2023-09-07T11:31:27;4.75;3.00;2.00
72509;PMS5003;60532;56.114;40.350;2023-09-07T11:33:30;3.75;3.00;1.75
72509;PMS5003;60532;56.114;40.350;2023-09-07T11:35:31;2.80;2.40;1.00
72509;PMS5003;60532;56.114;40.350;2023-09-07T11:37:32;3.40;3.00;1.00
72509;PMS5003;60532;56.114;40.350;2023-09-07T11:39:33;4.00;2.00;1.50
72509;PMS5003;60532;56.114;40.350;2023-09-07T11:41:33;1.50;1.50;1.00
72509;PMS5003;60532;56.114;40.350;2023-09-07T11:43:34;2.25;2.25;1.00
72509;PMS5003;60532;56.114;40.350;2023-09-07T11:45:34;1.75;1.75;1.00
72509;PMS5003;60532;56.114;40.350;2023-09-07T11:47:34;2.75;2.00;1.00
72509;PMS5003;60532;56.114;40.350;2023-09-07T11:49:35;3.00;2.00;1.00
72509;PMS5003;60532;56.114;40.350;2023-09-07T11:51:36;2.50;1.50;1.00
72509;PMS5003;60532;56.114;40.350;2023-09-07T11:53:37;3.75;2.75;1.00
72509;PMS5003;60532;56.114;40.350;2023-09-07T11:55:37;2.00;2.00;1.00
72509;PMS5003;60532;56.114;40.350;2023-09-07T11:57:39;2.60;1.60;1.00